createdAt,value
2019-02-16T00:01:29.209Z,93.30
2019-02-16T00:11:30.647Z,93.40
2019-02-16T00:21:32.188Z,93.70
2019-02-16T00:31:34.026Z,93.60
2019-02-16T00:41:35.345Z,93.40
2019-02-16T00:51:36.843Z,93.50
2019-02-16T01:01:39.272Z,93.50
2019-02-16T01:11:40.660Z,93.90
2019-02-16T01:21:42.096Z,94.20
2019-02-16T01:31:44.041Z,94.40
2019-02-16T01:41:47.480Z,94.10
2019-02-16T01:51:48.753Z,94.30
2019-02-16T02:01:51.241Z,94.30
2019-02-16T02:11:52.656Z,94.50
2019-02-16T02:21:54.199Z,94.30
2019-02-16T02:31:55.669Z,94.30
2019-02-16T02:41:57.093Z,94.50
2019-02-16T02:51:58.593Z,94.30
2019-02-16T03:02:01.092Z,94.40
2019-02-16T03:12:02.613Z,94.40
2019-02-16T03:22:04.151Z,94.60
2019-02-16T03:32:09.367Z,94.50
2019-02-16T03:42:10.772Z,94.60
2019-02-16T03:52:14.118Z,94.30
2019-02-16T04:02:16.540Z,94.80
2019-02-16T04:12:17.953Z,94.80
2019-02-16T04:22:24.673Z,94.30
2019-02-16T04:32:23.020Z,94.30
2019-02-16T04:42:24.428Z,94.40
2019-02-16T04:52:34.434Z,94.60
2019-02-16T05:02:30.856Z,94.50
2019-02-16T05:12:32.272Z,94.50
2019-02-16T05:22:33.804Z,94.80
2019-02-16T05:32:35.285Z,94.50
2019-02-16T05:42:36.697Z,94.50
2019-02-16T05:52:38.143Z,94.50
2019-02-16T06:02:40.516Z,94.60
2019-02-16T06:12:41.832Z,94.40
2019-02-16T06:22:43.353Z,93.90
2019-02-16T06:32:44.672Z,93.40
2019-02-16T06:42:46.073Z,93.00
2019-02-16T06:52:47.561Z,90.80
2019-02-16T07:02:50.033Z,80.70
2019-02-16T07:12:51.437Z,73.80
2019-02-16T07:22:52.937Z,64.40
2019-02-16T07:32:54.352Z,58.20
2019-02-16T07:42:56.465Z,54.70
2019-02-16T07:53:08.766Z,46.40
2019-02-16T08:03:18.009Z,40.80
2019-02-16T08:13:33.325Z,37.00
2019-02-16T08:23:53.633Z,27.10
2019-02-16T08:33:56.856Z,26.60
2019-02-16T08:44:05.957Z,24.50
2019-02-16T08:54:26.185Z,21.40
2019-02-16T09:04:31.752Z,19.80
2019-02-16T09:14:47.132Z,18.40
2019-02-16T09:24:50.556Z,20.30
2019-02-16T09:34:53.803Z,19.90
2019-02-16T09:44:59.621Z,19.20
2019-02-16T09:55:05.811Z,18.60
2019-02-16T10:05:13.548Z,17.60
2019-02-16T10:15:16.928Z,17.20
2019-02-16T10:25:32.464Z,16.20
2019-02-16T10:35:54.025Z,18.60
2019-02-16T10:46:06.656Z,19.50
2019-02-16T10:56:25.301Z,21.50
2019-02-16T11:06:36.333Z,26.00
2019-02-16T11:16:48.755Z,27.10
2019-02-16T11:27:04.465Z,27.70
2019-02-16T11:37:19.952Z,31.10
2019-02-16T11:47:39.744Z,34.40
2019-02-16T11:57:55.477Z,29.50
2019-02-16T12:08:07.419Z,29.90
2019-02-16T12:18:16.781Z,32.20
2019-02-16T12:28:38.849Z,35.20
2019-02-16T12:38:42.192Z,35.20
2019-02-16T12:48:57.778Z,36.00
2019-02-16T12:59:01.161Z,39.30
2019-02-16T13:09:19.640Z,37.60
2019-02-16T13:19:29.037Z,39.90
2019-02-16T13:29:32.436Z,38.30
2019-02-16T13:39:38.513Z,38.70
2019-02-16T13:49:41.808Z,38.20
2019-02-16T13:59:45.138Z,37.90
2019-02-16T14:10:05.310Z,40.50
2019-02-16T14:20:07.199Z,41.90
2019-02-16T14:30:11.204Z,42.50
2019-02-16T14:40:12.638Z,44.40
2019-02-16T14:50:14.041Z,45.00
2019-02-16T15:00:15.535Z,47.00
2019-02-16T15:10:18.597Z,46.80
2019-02-16T15:20:20.065Z,48.40
2019-02-16T15:30:21.613Z,48.20
2019-02-16T15:40:23.097Z,49.50
2019-02-16T15:50:24.524Z,50.20
2019-02-16T16:00:27.205Z,54.30
2019-02-16T16:10:35.040Z,55.30
2019-02-16T16:20:44.465Z,58.10
2019-02-16T16:30:48.045Z,58.10
2019-02-16T16:40:51.666Z,59.60
2019-02-16T16:51:01.064Z,64.60
2019-02-16T17:01:05.164Z,67.00
2019-02-16T17:11:11.356Z,69.90
2019-02-16T17:21:15.724Z,69.20
2019-02-16T17:31:19.030Z,69.70
2019-02-16T17:41:28.565Z,71.30
2019-02-16T17:51:34.504Z,73.10
2019-02-16T18:01:56.100Z,75.40
2019-02-16T18:12:03.238Z,77.30
2019-02-16T18:22:12.437Z,79.40
2019-02-16T18:32:30.800Z,80.30
2019-02-16T18:42:33.068Z,81.50
2019-02-16T18:52:45.392Z,79.20
2019-02-16T19:02:54.697Z,79.40
2019-02-16T19:12:58.989Z,79.60
2019-02-16T19:23:02.313Z,79.10
2019-02-16T19:33:05.749Z,79.60
2019-02-16T19:43:09.136Z,75.10
2019-02-16T19:53:32.323Z,74.30
2019-02-16T20:03:35.624Z,73.00
2019-02-16T20:13:39.105Z,68.80
2019-02-16T20:23:42.434Z,68.90
2019-02-16T20:33:48.710Z,68.60
2019-02-16T20:43:53.328Z,68.50
2019-02-16T20:54:02.447Z,67.80
2019-02-16T21:04:05.795Z,67.50
2019-02-16T21:14:12.849Z,68.60
2019-02-16T21:24:18.744Z,68.90
2019-02-16T21:34:29.779Z,71.10
2019-02-16T21:44:33.515Z,71.60
2019-02-16T21:54:36.877Z,73.20
2019-02-16T22:04:52.161Z,75.30
2019-02-16T22:14:54.655Z,77.00
2019-02-16T22:24:56.077Z,78.10
2019-02-16T22:34:57.606Z,77.00
2019-02-16T22:44:59.108Z,78.60
2019-02-16T22:55:00.509Z,78.50
2019-02-16T23:05:02.201Z,81.00
2019-02-16T23:15:08.535Z,79.70
2019-02-16T23:25:10.153Z,81.10
2019-02-16T23:35:11.753Z,83.10
2019-02-16T23:45:13.445Z,82.10
2019-02-16T23:55:14.858Z,82.10
